sensor_id;sensor_type;location;lat;lon;timestamp;P1;durP1;ratioP1;P2;durP2;ratioP2
15816;SDS011;8009;50.070;8.232;2023-06-05T00:01:44;15.43;;;14.82;;
15816;SDS011;8009;50.070;8.232;2023-06-05T00:04:12;14.43;;;13.87;;
15816;SDS011;8009;50.070;8.232;2023-06-05T00:06:43;14.23;;;13.73;;
15816;SDS011;8009;50.070;8.232;2023-06-05T00:09:11;13.25;;;12.75;;
15816;SDS011;8009;50.070;8.232;2023-06-05T00:11:40;13.77;;;13.27;;
15816;SDS011;8009;50.070;8.232;2023-06-05T00:14:08;13.07;;;12.57;;
15816;SDS011;8009;50.070;8.232;2023-06-05T00:16:39;13.75;;;13.25;;
15816;SDS011;8009;50.070;8.232;2023-06-05T00:19:07;14.27;;;13.77;;
15816;SDS011;8009;50.070;8.232;2023-06-05T00:21:36;14.65;;;14.15;;
15816;SDS011;8009;50.070;8.232;2023-06-05T00:24:05;13.43;;;12.93;;
15816;SDS011;8009;50.070;8.232;2023-06-05T00:26:33;13.77;;;13.27;;
15816;SDS011;8009;50.070;8.232;2023-06-05T00:29:01;14.25;;;13.75;;
15816;SDS011;8009;50.070;8.232;2023-06-05T00:31:30;13.73;;;13.23;;
15816;SDS011;8009;50.070;8.232;2023-06-05T00:34:01;14.18;;;13.68;;
15816;SDS011;8009;50.070;8.232;2023-06-05T00:36:29;14.60;;;14.10;;
15816;SDS011;8009;50.070;8.232;2023-06-05T00:38:58;13.30;;;12.80;;
15816;SDS011;8009;50.070;8.232;2023-06-05T00:41:26;13.17;;;12.67;;
15816;SDS011;8009;50.070;8.232;2023-06-05T00:43:55;12.67;;;12.17;;
15816;SDS011;8009;50.070;8.232;2023-06-05T00:46:23;11.30;;;10.80;;
15816;SDS011;8009;50.070;8.232;2023-06-05T00:48:52;13.15;;;12.65;;
15816;SDS011;8009;50.070;8.232;2023-06-05T00:51:23;13.20;;;12.70;;
15816;SDS011;8009;50.070;8.232;2023-06-05T00:53:51;13.13;;;12.63;;
15816;SDS011;8009;50.070;8.232;2023-06-05T00:56:20;12.60;;;12.10;;
15816;SDS011;8009;50.070;8.232;2023-06-05T00:58:48;13.07;;;12.57;;
15816;SDS011;8009;50.070;8.232;2023-06-05T01:01:17;16.30;;;15.70;;
15816;SDS011;8009;50.070;8.232;2023-06-05T01:03:45;13.57;;;13.07;;
15816;SDS011;8009;50.070;8.232;2023-06-05T01:06:14;13.30;;;12.80;;
15816;SDS011;8009;50.070;8.232;2023-06-05T01:08:47;11.97;;;11.57;;
15816;SDS011;8009;50.070;8.232;2023-06-05T01:11:16;13.80;;;13.30;;
15816;SDS011;8009;50.070;8.232;2023-06-05T01:13:53;12.77;;;12.27;;
15816;SDS011;8009;50.070;8.232;2023-06-05T01:16:25;13.20;;;12.70;;
15816;SDS011;8009;50.070;8.232;2023-06-05T01:18:57;13.90;;;13.40;;
15816;SDS011;8009;50.070;8.232;2023-06-05T01:21:29;12.33;;;11.90;;
15816;SDS011;8009;50.070;8.232;2023-06-05T01:24:00;13.20;;;12.70;;
15816;SDS011;8009;50.070;8.232;2023-06-05T01:26:36;12.77;;;12.27;;
15816;SDS011;8009;50.070;8.232;2023-06-05T01:29:17;13.43;;;12.93;;
15816;SDS011;8009;50.070;8.232;2023-06-05T01:31:52;12.43;;;11.93;;
15816;SDS011;8009;50.070;8.232;2023-06-05T01:34:28;12.13;;;11.73;;
15816;SDS011;8009;50.070;8.232;2023-06-05T01:36:57;13.07;;;12.57;;
15816;SDS011;8009;50.070;8.232;2023-06-05T01:39:28;11.57;;;11.17;;
15816;SDS011;8009;50.070;8.232;2023-06-05T01:41:57;12.43;;;12.00;;
15816;SDS011;8009;50.070;8.232;2023-06-05T01:44:28;12.27;;;11.87;;
15816;SDS011;8009;50.070;8.232;2023-06-05T01:46:57;12.97;;;12.40;;
15816;SDS011;8009;50.070;8.232;2023-06-05T01:49:26;13.83;;;13.33;;
15816;SDS011;8009;50.070;8.232;2023-06-05T01:51:54;13.70;;;13.20;;
15816;SDS011;8009;50.070;8.232;2023-06-05T01:54:23;12.73;;;12.23;;
15816;SDS011;8009;50.070;8.232;2023-06-05T01:56:54;13.10;;;12.60;;
15816;SDS011;8009;50.070;8.232;2023-06-05T01:59:23;12.63;;;12.13;;
15816;SDS011;8009;50.070;8.232;2023-06-05T02:01:52;12.67;;;12.17;;
15816;SDS011;8009;50.070;8.232;2023-06-05T02:04:20;11.23;;;10.83;;
15816;SDS011;8009;50.070;8.232;2023-06-05T02:06:49;12.07;;;11.67;;
15816;SDS011;8009;50.070;8.232;2023-06-05T02:09:18;12.30;;;11.87;;
15816;SDS011;8009;50.070;8.232;2023-06-05T02:11:46;12.97;;;12.47;;
15816;SDS011;8009;50.070;8.232;2023-06-05T02:14:17;12.40;;;11.97;;
15816;SDS011;8009;50.070;8.232;2023-06-05T02:16:48;14.33;;;13.83;;
15816;SDS011;8009;50.070;8.232;2023-06-05T02:19:16;14.23;;;13.73;;
15816;SDS011;8009;50.070;8.232;2023-06-05T02:21:44;12.57;;;12.07;;
15816;SDS011;8009;50.070;8.232;2023-06-05T02:24:12;13.93;;;13.43;;
15816;SDS011;8009;50.070;8.232;2023-06-05T02:26:41;13.40;;;12.90;;
15816;SDS011;8009;50.070;8.232;2023-06-05T02:29:09;13.93;;;13.43;;
15816;SDS011;8009;50.070;8.232;2023-06-05T02:31:40;15.13;;;14.53;;
15816;SDS011;8009;50.070;8.232;2023-06-05T02:34:08;13.60;;;13.10;;
15816;SDS011;8009;50.070;8.232;2023-06-05T02:36:37;13.47;;;12.97;;
15816;SDS011;8009;50.070;8.232;2023-06-05T02:39:07;13.57;;;13.07;;
15816;SDS011;8009;50.070;8.232;2023-06-05T02:41:35;13.47;;;12.97;;
15816;SDS011;8009;50.070;8.232;2023-06-05T02:44:04;13.67;;;13.17;;
15816;SDS011;8009;50.070;8.232;2023-06-05T02:46:32;15.23;;;14.63;;
15816;SDS011;8009;50.070;8.232;2023-06-05T02:49:03;13.07;;;12.57;;
15816;SDS011;8009;50.070;8.232;2023-06-05T02:51:32;12.87;;;12.37;;
15816;SDS011;8009;50.070;8.232;2023-06-05T02:54:00;12.10;;;11.70;;
15816;SDS011;8009;50.070;8.232;2023-06-05T02:56:29;12.17;;;11.67;;
15816;SDS011;8009;50.070;8.232;2023-06-05T02:58:57;13.60;;;13.10;;
15816;SDS011;8009;50.070;8.232;2023-06-05T03:01:27;14.07;;;13.57;;
15816;SDS011;8009;50.070;8.232;2023-06-05T03:03:59;12.77;;;12.27;;
15816;SDS011;8009;50.070;8.232;2023-06-05T03:06:30;13.83;;;13.33;;
15816;SDS011;8009;50.070;8.232;2023-06-05T03:09:00;14.33;;;13.83;;
15816;SDS011;8009;50.070;8.232;2023-06-05T03:11:29;13.80;;;13.30;;
15816;SDS011;8009;50.070;8.232;2023-06-05T03:13:57;13.23;;;12.73;;
15816;SDS011;8009;50.070;8.232;2023-06-05T03:16:25;13.27;;;12.77;;
15816;SDS011;8009;50.070;8.232;2023-06-05T03:18:57;12.53;;;12.03;;
15816;SDS011;8009;50.070;8.232;2023-06-05T03:21:26;11.60;;;11.20;;
15816;SDS011;8009;50.070;8.232;2023-06-05T03:23:57;11.77;;;11.37;;
15816;SDS011;8009;50.070;8.232;2023-06-05T03:26:25;12.83;;;12.33;;
15816;SDS011;8009;50.070;8.232;2023-06-05T03:28:54;13.23;;;12.73;;
15816;SDS011;8009;50.070;8.232;2023-06-05T03:31:22;13.80;;;13.30;;
15816;SDS011;8009;50.070;8.232;2023-06-05T03:33:50;12.70;;;12.20;;
15816;SDS011;8009;50.070;8.232;2023-06-05T03:36:19;13.67;;;13.17;;
15816;SDS011;8009;50.070;8.232;2023-06-05T03:38:48;12.90;;;12.40;;
15816;SDS011;8009;50.070;8.232;2023-06-05T03:41:19;12.97;;;12.47;;
15816;SDS011;8009;50.070;8.232;2023-06-05T03:43:47;12.37;;;11.93;;
15816;SDS011;8009;50.070;8.232;2023-06-05T03:46:16;15.03;;;14.43;;
15816;SDS011;8009;50.070;8.232;2023-06-05T03:48:46;13.13;;;12.63;;
15816;SDS011;8009;50.070;8.232;2023-06-05T03:51:18;13.90;;;13.40;;
15816;SDS011;8009;50.070;8.232;2023-06-05T03:53:46;12.77;;;12.27;;
15816;SDS011;8009;50.070;8.232;2023-06-05T03:56:22;14.07;;;13.57;;
15816;SDS011;8009;50.070;8.232;2023-06-05T03:58:56;14.17;;;13.67;;
15816;SDS011;8009;50.070;8.232;2023-06-05T04:01:33;13.97;;;13.47;;
15816;SDS011;8009;50.070;8.232;2023-06-05T04:04:02;13.97;;;13.47;;
15816;SDS011;8009;50.070;8.232;2023-06-05T04:06:33;15.43;;;14.82;;
15816;SDS011;8009;50.070;8.232;2023-06-05T04:09:01;14.33;;;13.83;;
15816;SDS011;8009;50.070;8.232;2023-06-05T04:11:38;15.17;;;14.57;;
15816;SDS011;8009;50.070;8.232;2023-06-05T04:14:07;13.70;;;13.20;;
15816;SDS011;8009;50.070;8.232;2023-06-05T04:16:36;15.73;;;15.13;;
15816;SDS011;8009;50.070;8.232;2023-06-05T04:19:08;14.20;;;13.70;;
15816;SDS011;8009;50.070;8.232;2023-06-05T04:21:37;13.27;;;12.77;;
15816;SDS011;8009;50.070;8.232;2023-06-05T04:24:06;13.37;;;12.87;;
15816;SDS011;8009;50.070;8.232;2023-06-05T04:26:39;14.43;;;13.93;;
15816;SDS011;8009;50.070;8.232;2023-06-05T04:29:08;13.83;;;13.33;;
15816;SDS011;8009;50.070;8.232;2023-06-05T04:31:40;12.13;;;11.67;;
15816;SDS011;8009;50.070;8.232;2023-06-05T04:34:08;12.67;;;12.17;;
15816;SDS011;8009;50.070;8.232;2023-06-05T04:36:37;13.27;;;12.77;;
15816;SDS011;8009;50.070;8.232;2023-06-05T04:39:05;13.27;;;12.77;;
15816;SDS011;8009;50.070;8.232;2023-06-05T04:41:42;12.30;;;11.90;;
15816;SDS011;8009;50.070;8.232;2023-06-05T04:44:11;13.40;;;12.90;;
15816;SDS011;8009;50.070;8.232;2023-06-05T04:46:41;13.43;;;12.93;;
15816;SDS011;8009;50.070;8.232;2023-06-05T04:49:10;14.67;;;14.13;;
15816;SDS011;8009;50.070;8.232;2023-06-05T04:51:38;12.67;;;12.17;;
15816;SDS011;8009;50.070;8.232;2023-06-05T04:54:08;12.83;;;12.33;;
15816;SDS011;8009;50.070;8.232;2023-06-05T04:56:37;13.00;;;12.50;;
15816;SDS011;8009;50.070;8.232;2023-06-05T04:59:08;12.73;;;12.23;;
15816;SDS011;8009;50.070;8.232;2023-06-05T05:01:36;13.53;;;13.03;;
15816;SDS011;8009;50.070;8.232;2023-06-05T05:04:07;13.53;;;13.03;;
15816;SDS011;8009;50.070;8.232;2023-06-05T05:06:36;13.00;;;12.50;;
15816;SDS011;8009;50.070;8.232;2023-06-05T05:09:06;12.83;;;12.33;;
15816;SDS011;8009;50.070;8.232;2023-06-05T05:11:34;11.70;;;11.30;;
15816;SDS011;8009;50.070;8.232;2023-06-05T05:14:02;13.50;;;13.00;;
15816;SDS011;8009;50.070;8.232;2023-06-05T05:16:34;12.27;;;11.87;;
15816;SDS011;8009;50.070;8.232;2023-06-05T05:19:02;13.03;;;12.53;;
15816;SDS011;8009;50.070;8.232;2023-06-05T05:21:33;12.70;;;12.20;;
15816;SDS011;8009;50.070;8.232;2023-06-05T05:24:01;12.80;;;12.30;;
15816;SDS011;8009;50.070;8.232;2023-06-05T05:26:31;12.67;;;12.17;;
15816;SDS011;8009;50.070;8.232;2023-06-05T05:29:00;12.63;;;12.13;;
15816;SDS011;8009;50.070;8.232;2023-06-05T05:31:28;13.30;;;12.80;;
15816;SDS011;8009;50.070;8.232;2023-06-05T05:33:59;12.73;;;12.23;;
15816;SDS011;8009;50.070;8.232;2023-06-05T05:36:28;11.73;;;11.33;;
15816;SDS011;8009;50.070;8.232;2023-06-05T05:38:58;13.43;;;12.93;;
15816;SDS011;8009;50.070;8.232;2023-06-05T05:41:26;11.53;;;11.13;;
15816;SDS011;8009;50.070;8.232;2023-06-05T05:43:55;12.98;;;12.48;;
15816;SDS011;8009;50.070;8.232;2023-06-05T05:46:23;12.67;;;12.17;;
15816;SDS011;8009;50.070;8.232;2023-06-05T05:48:51;14.53;;;13.97;;
15816;SDS011;8009;50.070;8.232;2023-06-05T05:51:23;13.33;;;12.83;;
15816;SDS011;8009;50.070;8.232;2023-06-05T05:53:51;12.77;;;12.27;;
15816;SDS011;8009;50.070;8.232;2023-06-05T05:56:19;12.83;;;12.33;;
15816;SDS011;8009;50.070;8.232;2023-06-05T05:58:48;12.97;;;12.47;;
15816;SDS011;8009;50.070;8.232;2023-06-05T06:01:16;12.77;;;12.27;;
15816;SDS011;8009;50.070;8.232;2023-06-05T06:03:44;12.77;;;12.27;;
15816;SDS011;8009;50.070;8.232;2023-06-05T06:06:13;11.93;;;11.33;;
15816;SDS011;8009;50.070;8.232;2023-06-05T06:08:44;12.60;;;12.10;;
15816;SDS011;8009;50.070;8.232;2023-06-05T06:11:13;11.87;;;11.40;;
15816;SDS011;8009;50.070;8.232;2023-06-05T06:13:41;13.30;;;12.80;;
15816;SDS011;8009;50.070;8.232;2023-06-05T06:16:11;13.60;;;13.10;;
15816;SDS011;8009;50.070;8.232;2023-06-05T06:18:39;13.27;;;12.77;;
15816;SDS011;8009;50.070;8.232;2023-06-05T06:21:07;13.50;;;13.00;;
15816;SDS011;8009;50.070;8.232;2023-06-05T06:23:36;12.38;;;11.88;;
15816;SDS011;8009;50.070;8.232;2023-06-05T06:26:07;13.37;;;12.77;;
15816;SDS011;8009;50.070;8.232;2023-06-05T06:28:35;13.03;;;12.53;;
15816;SDS011;8009;50.070;8.232;2023-06-05T06:31:03;12.93;;;12.43;;
15816;SDS011;8009;50.070;8.232;2023-06-05T06:33:32;13.00;;;12.50;;
15816;SDS011;8009;50.070;8.232;2023-06-05T06:36:01;12.47;;;11.97;;
15816;SDS011;8009;50.070;8.232;2023-06-05T06:38:30;12.88;;;12.38;;
15816;SDS011;8009;50.070;8.232;2023-06-05T06:40:58;12.67;;;12.17;;
15816;SDS011;8009;50.070;8.232;2023-06-05T06:43:29;13.70;;;13.10;;
15816;SDS011;8009;50.070;8.232;2023-06-05T06:45:58;13.30;;;12.80;;
15816;SDS011;8009;50.070;8.232;2023-06-05T06:48:26;13.70;;;13.20;;
15816;SDS011;8009;50.070;8.232;2023-06-05T06:50:54;14.88;;;14.32;;
15816;SDS011;8009;50.070;8.232;2023-06-05T06:53:23;15.48;;;14.88;;
15816;SDS011;8009;50.070;8.232;2023-06-05T06:55:51;16.90;;;16.30;;
15816;SDS011;8009;50.070;8.232;2023-06-05T06:58:19;15.98;;;15.38;;
15816;SDS011;8009;50.070;8.232;2023-06-05T07:00:51;15.65;;;15.05;;
15816;SDS011;8009;50.070;8.232;2023-06-05T07:03:20;16.13;;;15.52;;
15816;SDS011;8009;50.070;8.232;2023-06-05T07:05:49;15.98;;;15.38;;
15816;SDS011;8009;50.070;8.232;2023-06-05T07:08:17;14.98;;;14.40;;
15816;SDS011;8009;50.070;8.232;2023-06-05T07:10:45;15.43;;;14.82;;
15816;SDS011;8009;50.070;8.232;2023-06-05T07:13:14;14.88;;;14.32;;
15816;SDS011;8009;50.070;8.232;2023-06-05T07:15:42;13.98;;;13.48;;
15816;SDS011;8009;50.070;8.232;2023-06-05T07:18:13;15.48;;;14.88;;
15816;SDS011;8009;50.070;8.232;2023-06-05T07:20:42;14.70;;;14.20;;
15816;SDS011;8009;50.070;8.232;2023-06-05T07:23:10;14.25;;;13.75;;
15816;SDS011;8009;50.070;8.232;2023-06-05T07:25:39;12.90;;;12.40;;
15816;SDS011;8009;50.070;8.232;2023-06-05T07:28:08;13.43;;;12.93;;
15816;SDS011;8009;50.070;8.232;2023-06-05T07:30:38;12.65;;;12.15;;
15816;SDS011;8009;50.070;8.232;2023-06-05T07:33:08;11.75;;;11.35;;
15816;SDS011;8009;50.070;8.232;2023-06-05T07:35:39;13.82;;;13.32;;
15816;SDS011;8009;50.070;8.232;2023-06-05T07:38:08;14.05;;;13.55;;
15816;SDS011;8009;50.070;8.232;2023-06-05T07:40:37;14.05;;;13.55;;
15816;SDS011;8009;50.070;8.232;2023-06-05T07:43:05;23.95;;;22.80;;
15816;SDS011;8009;50.070;8.232;2023-06-05T07:45:39;14.57;;;13.88;;
15816;SDS011;8009;50.070;8.232;2023-06-05T07:48:07;14.07;;;13.57;;
15816;SDS011;8009;50.070;8.232;2023-06-05T07:50:35;13.40;;;12.90;;
15816;SDS011;8009;50.070;8.232;2023-06-05T07:53:06;14.60;;;14.10;;
15816;SDS011;8009;50.070;8.232;2023-06-05T07:55:34;13.80;;;13.30;;
15816;SDS011;8009;50.070;8.232;2023-06-05T07:58:04;13.27;;;12.77;;
15816;SDS011;8009;50.070;8.232;2023-06-05T08:00:32;12.98;;;12.48;;
15816;SDS011;8009;50.070;8.232;2023-06-05T08:03:00;14.13;;;13.63;;
15816;SDS011;8009;50.070;8.232;2023-06-05T08:05:29;14.02;;;13.52;;
15816;SDS011;8009;50.070;8.232;2023-06-05T08:07:59;13.63;;;13.13;;
15816;SDS011;8009;50.070;8.232;2023-06-05T08:10:30;14.38;;;13.77;;
15816;SDS011;8009;50.070;8.232;2023-06-05T08:12:59;13.38;;;12.88;;
15816;SDS011;8009;50.070;8.232;2023-06-05T08:15:28;13.40;;;12.90;;
15816;SDS011;8009;50.070;8.232;2023-06-05T08:17:56;13.00;;;12.50;;
15816;SDS011;8009;50.070;8.232;2023-06-05T08:20:24;13.02;;;12.52;;
15816;SDS011;8009;50.070;8.232;2023-06-05T08:22:54;14.85;;;14.25;;
15816;SDS011;8009;50.070;8.232;2023-06-05T08:25:23;13.27;;;12.77;;
15816;SDS011;8009;50.070;8.232;2023-06-05T08:27:54;13.73;;;13.23;;
15816;SDS011;8009;50.070;8.232;2023-06-05T08:30:22;13.90;;;13.40;;
15816;SDS011;8009;50.070;8.232;2023-06-05T08:32:51;14.13;;;13.63;;
15816;SDS011;8009;50.070;8.232;2023-06-05T08:35:19;13.35;;;12.85;;
15816;SDS011;8009;50.070;8.232;2023-06-05T08:37:47;21.88;;;20.88;;
15816;SDS011;8009;50.070;8.232;2023-06-05T08:40:16;14.40;;;13.90;;
15816;SDS011;8009;50.070;8.232;2023-06-05T08:42:46;14.00;;;13.50;;
15816;SDS011;8009;50.070;8.232;2023-06-05T08:45:17;14.32;;;13.82;;
15816;SDS011;8009;50.070;8.232;2023-06-05T08:47:46;14.40;;;13.90;;
15816;SDS011;8009;50.070;8.232;2023-06-05T08:50:19;17.15;;;16.55;;
15816;SDS011;8009;50.070;8.232;2023-06-05T08:52:48;14.90;;;14.35;;
15816;SDS011;8009;50.070;8.232;2023-06-05T08:55:18;16.45;;;15.85;;
15816;SDS011;8009;50.070;8.232;2023-06-05T08:57:47;15.30;;;14.70;;
15816;SDS011;8009;50.070;8.232;2023-06-05T09:00:18;16.10;;;15.50;;
15816;SDS011;8009;50.070;8.232;2023-06-05T09:02:47;15.55;;;14.95;;
15816;SDS011;8009;50.070;8.232;2023-06-05T09:05:16;16.60;;;16.00;;
15816;SDS011;8009;50.070;8.232;2023-06-05T09:07:45;14.25;;;13.65;;
15816;SDS011;8009;50.070;8.232;2023-06-05T09:10:23;15.20;;;14.60;;
15816;SDS011;8009;50.070;8.232;2023-06-05T09:12:53;15.05;;;14.45;;
15816;SDS011;8009;50.070;8.232;2023-06-05T09:15:25;15.20;;;14.60;;
15816;SDS011;8009;50.070;8.232;2023-06-05T09:18:04;15.00;;;14.40;;
15816;SDS011;8009;50.070;8.232;2023-06-05T09:20:36;15.18;;;14.57;;
15816;SDS011;8009;50.070;8.232;2023-06-05T09:25:52;14.63;;;14.02;;
15816;SDS011;8009;50.070;8.232;2023-06-05T09:28:25;14.55;;;13.98;;
15816;SDS011;8009;50.070;8.232;2023-06-05T09:30:58;15.00;;;14.40;;
15816;SDS011;8009;50.070;8.232;2023-06-05T09:33:28;15.02;;;14.43;;
15816;SDS011;8009;50.070;8.232;2023-06-05T09:36:03;14.38;;;13.77;;
15816;SDS011;8009;50.070;8.232;2023-06-05T09:38:34;13.95;;;13.45;;
15816;SDS011;8009;50.070;8.232;2023-06-05T09:41:03;14.68;;;14.18;;
15816;SDS011;8009;50.070;8.232;2023-06-05T09:43:33;14.20;;;13.70;;
15816;SDS011;8009;50.070;8.232;2023-06-05T09:46:13;14.82;;;14.23;;
15816;SDS011;8009;50.070;8.232;2023-06-05T09:48:57;13.75;;;13.25;;
15816;SDS011;8009;50.070;8.232;2023-06-05T09:51:27;15.13;;;14.52;;
15816;SDS011;8009;50.070;8.232;2023-06-05T09:53:56;16.50;;;15.90;;
15816;SDS011;8009;50.070;8.232;2023-06-05T09:56:28;20.10;;;19.33;;
15816;SDS011;8009;50.070;8.232;2023-06-05T09:58:56;38.40;;;36.85;;
15816;SDS011;8009;50.070;8.232;2023-06-05T10:01:28;59.97;;;57.58;;
15816;SDS011;8009;50.070;8.232;2023-06-05T10:04:05;61.05;;;58.60;;
15816;SDS011;8009;50.070;8.232;2023-06-05T10:06:36;31.75;;;30.50;;
15816;SDS011;8009;50.070;8.232;2023-06-05T10:09:07;23.55;;;22.65;;
15816;SDS011;8009;50.070;8.232;2023-06-05T10:11:36;19.75;;;18.95;;
15816;SDS011;8009;50.070;8.232;2023-06-05T10:14:08;20.88;;;20.08;;
15816;SDS011;8009;50.070;8.232;2023-06-05T10:16:40;13.55;;;13.05;;
15816;SDS011;8009;50.070;8.232;2023-06-05T10:19:09;14.98;;;14.38;;
15816;SDS011;8009;50.070;8.232;2023-06-05T10:21:39;13.70;;;13.20;;
15816;SDS011;8009;50.070;8.232;2023-06-05T10:24:11;15.88;;;15.27;;
15816;SDS011;8009;50.070;8.232;2023-06-05T10:26:50;14.93;;;14.35;;
15816;SDS011;8009;50.070;8.232;2023-06-05T10:29:50;16.92;;;16.33;;
15816;SDS011;8009;50.070;8.232;2023-06-05T10:32:37;19.17;;;18.48;;
15816;SDS011;8009;50.070;8.232;2023-06-05T10:35:19;21.30;;;20.48;;
15816;SDS011;8009;50.070;8.232;2023-06-05T10:38:01;21.67;;;20.88;;
15816;SDS011;8009;50.070;8.232;2023-06-05T10:40:38;17.98;;;17.27;;
15816;SDS011;8009;50.070;8.232;2023-06-05T10:45:51;17.58;;;16.88;;
15816;SDS011;8009;50.070;8.232;2023-06-05T10:48:23;14.80;;;14.20;;
15816;SDS011;8009;50.070;8.232;2023-06-05T10:51:33;14.52;;;13.93;;
15816;SDS011;8009;50.070;8.232;2023-06-05T10:54:04;15.05;;;14.45;;
15816;SDS011;8009;50.070;8.232;2023-06-05T10:59:23;14.60;;;14.10;;
15816;SDS011;8009;50.070;8.232;2023-06-05T11:05:17;15.75;;;15.15;;
15816;SDS011;8009;50.070;8.232;2023-06-05T11:07:47;16.05;;;15.45;;
15816;SDS011;8009;50.070;8.232;2023-06-05T11:10:16;30.80;;;29.60;;
15816;SDS011;8009;50.070;8.232;2023-06-05T11:12:57;20.17;;;19.38;;
15816;SDS011;8009;50.070;8.232;2023-06-05T11:15:42;17.27;;;16.65;;
15816;SDS011;8009;50.070;8.232;2023-06-05T11:21:21;15.98;;;15.38;;
15816;SDS011;8009;50.070;8.232;2023-06-05T11:26:43;17.23;;;16.52;;
15816;SDS011;8009;50.070;8.232;2023-06-05T11:29:16;19.88;;;19.08;;
15816;SDS011;8009;50.070;8.232;2023-06-05T11:31:45;16.02;;;15.43;;
15816;SDS011;8009;50.070;8.232;2023-06-05T11:34:14;16.15;;;15.55;;
15816;SDS011;8009;50.070;8.232;2023-06-05T11:36:47;28.85;;;27.70;;
15816;SDS011;8009;50.070;8.232;2023-06-05T11:42:41;15.88;;;15.27;;
15816;SDS011;8009;50.070;8.232;2023-06-05T11:45:10;15.60;;;15.00;;
15816;SDS011;8009;50.070;8.232;2023-06-05T11:47:41;15.85;;;15.25;;
15816;SDS011;8009;50.070;8.232;2023-06-05T11:50:10;16.27;;;15.68;;
15816;SDS011;8009;50.070;8.232;2023-06-05T11:52:46;14.80;;;14.20;;
15816;SDS011;8009;50.070;8.232;2023-06-05T11:55:16;15.68;;;15.07;;
15816;SDS011;8009;50.070;8.232;2023-06-05T11:57:47;16.30;;;15.70;;
15816;SDS011;8009;50.070;8.232;2023-06-05T12:00:22;16.52;;;15.93;;
15816;SDS011;8009;50.070;8.232;2023-06-05T12:03:05;15.48;;;14.88;;
15816;SDS011;8009;50.070;8.232;2023-06-05T12:06:00;14.98;;;14.38;;
15816;SDS011;8009;50.070;8.232;2023-06-05T12:08:34;29.83;;;28.33;;
15816;SDS011;8009;50.070;8.232;2023-06-05T12:11:02;15.23;;;14.63;;
15816;SDS011;8009;50.070;8.232;2023-06-05T12:18:43;16.98;;;16.27;;
15816;SDS011;8009;50.070;8.232;2023-06-05T12:21:20;16.90;;;16.30;;
15816;SDS011;8009;50.070;8.232;2023-06-05T12:26:49;15.00;;;14.43;;
15816;SDS011;8009;50.070;8.232;2023-06-05T12:29:20;16.95;;;16.35;;
15816;SDS011;8009;50.070;8.232;2023-06-05T12:31:51;17.33;;;16.67;;
15816;SDS011;8009;50.070;8.232;2023-06-05T12:37:07;15.57;;;14.98;;
15816;SDS011;8009;50.070;8.232;2023-06-05T12:39:39;15.55;;;14.95;;
15816;SDS011;8009;50.070;8.232;2023-06-05T12:42:08;15.73;;;15.13;;
15816;SDS011;8009;50.070;8.232;2023-06-05T12:44:40;16.08;;;15.48;;
15816;SDS011;8009;50.070;8.232;2023-06-05T12:47:14;22.17;;;21.33;;
15816;SDS011;8009;50.070;8.232;2023-06-05T12:49:44;17.13;;;16.52;;
15816;SDS011;8009;50.070;8.232;2023-06-05T12:58:03;16.65;;;15.88;;
15816;SDS011;8009;50.070;8.232;2023-06-05T13:00:31;16.00;;;15.40;;
15816;SDS011;8009;50.070;8.232;2023-06-05T13:02:59;16.92;;;16.27;;
15816;SDS011;8009;50.070;8.232;2023-06-05T13:05:29;17.58;;;16.88;;
15816;SDS011;8009;50.070;8.232;2023-06-05T13:07:57;18.95;;;18.25;;
15816;SDS011;8009;50.070;8.232;2023-06-05T13:10:28;15.52;;;14.93;;
15816;SDS011;8009;50.070;8.232;2023-06-05T13:12:56;16.77;;;16.13;;
15816;SDS011;8009;50.070;8.232;2023-06-05T13:15:25;16.30;;;15.70;;
15816;SDS011;8009;50.070;8.232;2023-06-05T13:17:53;14.85;;;14.25;;
15816;SDS011;8009;50.070;8.232;2023-06-05T13:20:21;15.57;;;14.98;;
15816;SDS011;8009;50.070;8.232;2023-06-05T13:22:50;14.70;;;14.10;;
15816;SDS011;8009;50.070;8.232;2023-06-05T13:25:18;15.10;;;14.50;;
15816;SDS011;8009;50.070;8.232;2023-06-05T13:27:49;15.77;;;15.18;;
15816;SDS011;8009;50.070;8.232;2023-06-05T13:30:18;15.77;;;15.07;;
15816;SDS011;8009;50.070;8.232;2023-06-05T13:32:46;15.45;;;14.77;;
15816;SDS011;8009;50.070;8.232;2023-06-05T13:35:15;14.90;;;14.30;;
15816;SDS011;8009;50.070;8.232;2023-06-05T13:37:43;14.70;;;14.20;;
15816;SDS011;8009;50.070;8.232;2023-06-05T13:40:13;15.00;;;14.40;;
15816;SDS011;8009;50.070;8.232;2023-06-05T13:42:42;14.90;;;14.30;;
15816;SDS011;8009;50.070;8.232;2023-06-05T13:45:12;15.50;;;14.90;;
15816;SDS011;8009;50.070;8.232;2023-06-05T13:47:41;15.60;;;15.00;;
15816;SDS011;8009;50.070;8.232;2023-06-05T13:50:10;15.70;;;15.10;;
15816;SDS011;8009;50.070;8.232;2023-06-05T13:52:38;16.08;;;15.48;;
15816;SDS011;8009;50.070;8.232;2023-06-05T13:55:07;16.05;;;15.45;;
15816;SDS011;8009;50.070;8.232;2023-06-05T13:57:36;25.70;;;24.70;;
15816;SDS011;8009;50.070;8.232;2023-06-05T14:00:05;17.45;;;16.77;;
15816;SDS011;8009;50.070;8.232;2023-06-05T14:02:37;15.30;;;14.70;;
15816;SDS011;8009;50.070;8.232;2023-06-05T14:05:05;15.88;;;15.27;;
15816;SDS011;8009;50.070;8.232;2023-06-05T14:07:35;14.40;;;13.90;;
15816;SDS011;8009;50.070;8.232;2023-06-05T14:10:04;15.63;;;15.02;;
15816;SDS011;8009;50.070;8.232;2023-06-05T14:12:34;15.38;;;14.77;;
15816;SDS011;8009;50.070;8.232;2023-06-05T14:15:02;14.93;;;14.32;;
15816;SDS011;8009;50.070;8.232;2023-06-05T14:17:31;14.63;;;14.02;;
15816;SDS011;8009;50.070;8.232;2023-06-05T14:20:02;14.95;;;14.35;;
15816;SDS011;8009;50.070;8.232;2023-06-05T14:22:31;14.70;;;14.20;;
15816;SDS011;8009;50.070;8.232;2023-06-05T14:24:59;14.52;;;14.02;;
15816;SDS011;8009;50.070;8.232;2023-06-05T14:27:28;14.93;;;14.32;;
15816;SDS011;8009;50.070;8.232;2023-06-05T14:29:56;14.55;;;14.00;;
15816;SDS011;8009;50.070;8.232;2023-06-05T14:32:24;14.82;;;14.23;;
15816;SDS011;8009;50.070;8.232;2023-06-05T14:34:53;14.02;;;13.52;;
15816;SDS011;8009;50.070;8.232;2023-06-05T14:37:24;14.75;;;14.15;;
15816;SDS011;8009;50.070;8.232;2023-06-05T14:39:52;14.52;;;14.02;;
15816;SDS011;8009;50.070;8.232;2023-06-05T14:42:21;14.73;;;14.20;;
15816;SDS011;8009;50.070;8.232;2023-06-05T14:44:50;14.63;;;14.13;;
15816;SDS011;8009;50.070;8.232;2023-06-05T14:47:18;15.35;;;14.75;;
15816;SDS011;8009;50.070;8.232;2023-06-05T14:49:47;14.18;;;13.68;;
15816;SDS011;8009;50.070;8.232;2023-06-05T14:52:15;15.40;;;14.80;;
15816;SDS011;8009;50.070;8.232;2023-06-05T14:54:46;14.55;;;14.05;;
15816;SDS011;8009;50.070;8.232;2023-06-05T14:57:15;15.50;;;14.90;;
15816;SDS011;8009;50.070;8.232;2023-06-05T14:59:43;14.57;;;14.07;;
15816;SDS011;8009;50.070;8.232;2023-06-05T15:02:11;15.10;;;14.50;;
15816;SDS011;8009;50.070;8.232;2023-06-05T15:04:42;14.10;;;13.60;;
15816;SDS011;8009;50.070;8.232;2023-06-05T15:07:10;21.38;;;20.58;;
15816;SDS011;8009;50.070;8.232;2023-06-05T15:09:39;15.60;;;15.00;;
15816;SDS011;8009;50.070;8.232;2023-06-05T15:12:10;15.23;;;14.63;;
15816;SDS011;8009;50.070;8.232;2023-06-05T15:14:38;15.05;;;14.45;;
15816;SDS011;8009;50.070;8.232;2023-06-05T15:17:06;14.68;;;14.15;;
15816;SDS011;8009;50.070;8.232;2023-06-05T15:19:35;14.52;;;14.02;;
15816;SDS011;8009;50.070;8.232;2023-06-05T15:22:04;14.85;;;14.25;;
15816;SDS011;8009;50.070;8.232;2023-06-05T15:24:33;14.73;;;14.15;;
15816;SDS011;8009;50.070;8.232;2023-06-05T15:27:01;15.50;;;14.90;;
15816;SDS011;8009;50.070;8.232;2023-06-05T15:29:32;15.23;;;14.63;;